sensor_id;sensor_type;location;lat;lon;timestamp;temperature;humidity
41481;DHT22;27217;51.220;5.308;2024-03-25T00:01:36;5.60;99.90
41481;DHT22;27217;51.220;5.308;2024-03-25T00:04:01;4.90;99.90
41481;DHT22;27217;51.220;5.308;2024-03-25T00:06:27;5.30;99.90
41481;DHT22;27217;51.220;5.308;2024-03-25T00:08:53;5.10;99.90
41481;DHT22;27217;51.220;5.308;2024-03-25T00:11:18;5.30;99.90
41481;DHT22;27217;51.220;5.308;2024-03-25T00:13:44;4.90;99.90
41481;DHT22;27217;51.220;5.308;2024-03-25T00:16:09;4.80;99.90
41481;DHT22;27217;51.220;5.308;2024-03-25T00:18:35;4.70;99.90
41481;DHT22;27217;51.220;5.308;2024-03-25T00:21:00;4.90;99.90
41481;DHT22;27217;51.220;5.308;2024-03-25T00:23:26;4.90;99.90
41481;DHT22;27217;51.220;5.308;2024-03-25T00:25:52;6.10;99.90
41481;DHT22;27217;51.220;5.308;2024-03-25T00:28:17;6.00;99.90
41481;DHT22;27217;51.220;5.308;2024-03-25T00:30:44;4.70;99.90
41481;DHT22;27217;51.220;5.308;2024-03-25T00:33:10;4.60;99.90
41481;DHT22;27217;51.220;5.308;2024-03-25T00:35:36;4.50;99.90
41481;DHT22;27217;51.220;5.308;2024-03-25T00:38:02;4.50;99.90
41481;DHT22;27217;51.220;5.308;2024-03-25T00:40:27;4.30;99.90
41481;DHT22;27217;51.220;5.308;2024-03-25T00:42:53;4.60;99.90
41481;DHT22;27217;51.220;5.308;2024-03-25T00:45:19;5.60;99.90
41481;DHT22;27217;51.220;5.308;2024-03-25T00:47:44;4.20;99.90
41481;DHT22;27217;51.220;5.308;2024-03-25T00:50:10;4.60;99.90
41481;DHT22;27217;51.220;5.308;2024-03-25T00:52:35;4.20;99.90
41481;DHT22;27217;51.220;5.308;2024-03-25T00:55:01;4.30;99.90
41481;DHT22;27217;51.220;5.308;2024-03-25T00:57:27;4.30;99.90
41481;DHT22;27217;51.220;5.308;2024-03-25T00:59:55;5.30;99.90
41481;DHT22;27217;51.220;5.308;2024-03-25T01:02:20;4.20;99.90
41481;DHT22;27217;51.220;5.308;2024-03-25T01:04:46;5.10;99.90
41481;DHT22;27217;51.220;5.308;2024-03-25T01:07:12;4.30;99.90
41481;DHT22;27217;51.220;5.308;2024-03-25T01:09:37;5.40;99.90
41481;DHT22;27217;51.220;5.308;2024-03-25T01:12:03;4.60;99.90
41481;DHT22;27217;51.220;5.308;2024-03-25T01:14:29;4.60;99.90
41481;DHT22;27217;51.220;5.308;2024-03-25T01:16:55;4.60;99.90
41481;DHT22;27217;51.220;5.308;2024-03-25T01:19:21;5.60;99.90
41481;DHT22;27217;51.220;5.308;2024-03-25T01:21:47;4.40;99.90
41481;DHT22;27217;51.220;5.308;2024-03-25T01:24:15;4.50;99.90
41481;DHT22;27217;51.220;5.308;2024-03-25T01:26:40;5.40;99.90
41481;DHT22;27217;51.220;5.308;2024-03-25T01:29:06;4.60;99.90
41481;DHT22;27217;51.220;5.308;2024-03-25T01:31:33;5.60;99.90
41481;DHT22;27217;51.220;5.308;2024-03-25T01:33:59;4.80;99.90
41481;DHT22;27217;51.220;5.308;2024-03-25T01:36:25;4.70;99.90
41481;DHT22;27217;51.220;5.308;2024-03-25T01:38:52;4.30;99.90
41481;DHT22;27217;51.220;5.308;2024-03-25T01:41:20;4.10;99.90
41481;DHT22;27217;51.220;5.308;2024-03-25T01:43:46;5.20;99.90
41481;DHT22;27217;51.220;5.308;2024-03-25T01:46:12;4.30;99.90
41481;DHT22;27217;51.220;5.308;2024-03-25T01:48:37;4.30;99.90
41481;DHT22;27217;51.220;5.308;2024-03-25T01:51:03;5.60;99.90
41481;DHT22;27217;51.220;5.308;2024-03-25T01:53:29;4.50;99.90
41481;DHT22;27217;51.220;5.308;2024-03-25T01:55:55;4.60;99.90
41481;DHT22;27217;51.220;5.308;2024-03-25T01:58:21;5.60;99.90
41481;DHT22;27217;51.220;5.308;2024-03-25T02:00:48;4.70;99.90
41481;DHT22;27217;51.220;5.308;2024-03-25T02:03:14;5.50;99.90
41481;DHT22;27217;51.220;5.308;2024-03-25T02:05:39;4.20;99.90
41481;DHT22;27217;51.220;5.308;2024-03-25T02:08:05;5.30;99.90
41481;DHT22;27217;51.220;5.308;2024-03-25T02:10:31;4.40;99.90
41481;DHT22;27217;51.220;5.308;2024-03-25T02:12:57;4.40;99.90
41481;DHT22;27217;51.220;5.308;2024-03-25T02:15:22;4.30;99.90
41481;DHT22;27217;51.220;5.308;2024-03-25T02:17:48;4.40;99.90
41481;DHT22;27217;51.220;5.308;2024-03-25T02:20:14;4.40;99.90
41481;DHT22;27217;51.220;5.308;2024-03-25T02:22:41;5.50;99.90
41481;DHT22;27217;51.220;5.308;2024-03-25T02:25:08;4.90;99.90
41481;DHT22;27217;51.220;5.308;2024-03-25T02:27:33;4.20;99.90
41481;DHT22;27217;51.220;5.308;2024-03-25T02:30:03;4.10;99.90
41481;DHT22;27217;51.220;5.308;2024-03-25T02:32:31;4.30;99.90
41481;DHT22;27217;51.220;5.308;2024-03-25T02:34:56;5.40;99.90
41481;DHT22;27217;51.220;5.308;2024-03-25T02:37:22;4.70;99.90
41481;DHT22;27217;51.220;5.308;2024-03-25T02:39:48;4.60;99.90
41481;DHT22;27217;51.220;5.308;2024-03-25T02:42:14;4.40;99.90
41481;DHT22;27217;51.220;5.308;2024-03-25T02:44:39;3.90;99.90
41481;DHT22;27217;51.220;5.308;2024-03-25T02:47:08;4.40;99.90
41481;DHT22;27217;51.220;5.308;2024-03-25T02:49:34;3.90;99.90
41481;DHT22;27217;51.220;5.308;2024-03-25T02:52:01;4.40;99.90
41481;DHT22;27217;51.220;5.308;2024-03-25T02:54:26;4.20;99.90
41481;DHT22;27217;51.220;5.308;2024-03-25T02:56:52;4.30;99.90
41481;DHT22;27217;51.220;5.308;2024-03-25T02:59:17;4.40;99.90
41481;DHT22;27217;51.220;5.308;2024-03-25T03:01:43;4.60;99.90
41481;DHT22;27217;51.220;5.308;2024-03-25T03:04:09;5.20;99.90
41481;DHT22;27217;51.220;5.308;2024-03-25T03:06:34;4.30;99.90
41481;DHT22;27217;51.220;5.308;2024-03-25T03:09:00;4.00;99.90
41481;DHT22;27217;51.220;5.308;2024-03-25T03:11:25;4.90;99.90
41481;DHT22;27217;51.220;5.308;2024-03-25T03:13:51;5.10;99.90
41481;DHT22;27217;51.220;5.308;2024-03-25T03:16:16;3.60;99.90
41481;DHT22;27217;51.220;5.308;2024-03-25T03:18:42;4.10;99.90
41481;DHT22;27217;51.220;5.308;2024-03-25T03:21:07;4.00;99.90
41481;DHT22;27217;51.220;5.308;2024-03-25T03:23:33;3.20;99.90
41481;DHT22;27217;51.220;5.308;2024-03-25T03:25:58;3.70;99.90
41481;DHT22;27217;51.220;5.308;2024-03-25T03:28:25;3.80;99.90
41481;DHT22;27217;51.220;5.308;2024-03-25T03:30:50;3.30;99.90
41481;DHT22;27217;51.220;5.308;2024-03-25T03:33:16;4.00;99.90
41481;DHT22;27217;51.220;5.308;2024-03-25T03:35:42;4.40;99.90
41481;DHT22;27217;51.220;5.308;2024-03-25T03:38:08;3.90;99.90
41481;DHT22;27217;51.220;5.308;2024-03-25T03:40:33;3.50;99.90
41481;DHT22;27217;51.220;5.308;2024-03-25T03:42:59;3.90;99.90
41481;DHT22;27217;51.220;5.308;2024-03-25T03:45:24;2.80;99.90
41481;DHT22;27217;51.220;5.308;2024-03-25T03:47:50;2.90;99.90
41481;DHT22;27217;51.220;5.308;2024-03-25T03:50:16;3.60;99.90
41481;DHT22;27217;51.220;5.308;2024-03-25T03:52:41;4.00;99.90
41481;DHT22;27217;51.220;5.308;2024-03-25T03:55:07;3.00;99.90
41481;DHT22;27217;51.220;5.308;2024-03-25T03:57:33;3.10;99.90
41481;DHT22;27217;51.220;5.308;2024-03-25T03:59:59;4.20;99.90
41481;DHT22;27217;51.220;5.308;2024-03-25T04:02:27;3.50;99.90
41481;DHT22;27217;51.220;5.308;2024-03-25T04:04:53;3.90;99.90
41481;DHT22;27217;51.220;5.308;2024-03-25T04:07:19;3.10;99.90
41481;DHT22;27217;51.220;5.308;2024-03-25T04:09:45;3.40;99.90
41481;DHT22;27217;51.220;5.308;2024-03-25T04:12:10;2.80;99.90
41481;DHT22;27217;51.220;5.308;2024-03-25T04:14:36;3.40;99.90
41481;DHT22;27217;51.220;5.308;2024-03-25T04:17:01;2.80;99.90
41481;DHT22;27217;51.220;5.308;2024-03-25T04:19:28;2.80;99.90
41481;DHT22;27217;51.220;5.308;2024-03-25T04:21:54;2.90;99.90
41481;DHT22;27217;51.220;5.308;2024-03-25T04:24:19;3.70;99.90
41481;DHT22;27217;51.220;5.308;2024-03-25T04:26:45;2.80;99.90
41481;DHT22;27217;51.220;5.308;2024-03-25T04:29:11;3.50;99.90
41481;DHT22;27217;51.220;5.308;2024-03-25T04:31:37;2.70;99.90
41481;DHT22;27217;51.220;5.308;2024-03-25T04:34:03;3.60;99.90
41481;DHT22;27217;51.220;5.308;2024-03-25T04:36:29;3.60;99.90
41481;DHT22;27217;51.220;5.308;2024-03-25T04:38:55;3.30;99.90
41481;DHT22;27217;51.220;5.308;2024-03-25T04:41:21;2.60;99.90
41481;DHT22;27217;51.220;5.308;2024-03-25T04:43:46;3.10;99.90
41481;DHT22;27217;51.220;5.308;2024-03-25T04:46:12;3.30;99.90
41481;DHT22;27217;51.220;5.308;2024-03-25T04:48:37;2.60;99.90
41481;DHT22;27217;51.220;5.308;2024-03-25T04:51:03;2.60;99.90
41481;DHT22;27217;51.220;5.308;2024-03-25T04:53:29;2.30;99.90
41481;DHT22;27217;51.220;5.308;2024-03-25T04:55:55;3.00;99.90
41481;DHT22;27217;51.220;5.308;2024-03-25T04:58:20;3.60;99.90
41481;DHT22;27217;51.220;5.308;2024-03-25T05:00:46;2.20;99.90
41481;DHT22;27217;51.220;5.308;2024-03-25T05:03:12;2.30;99.90
41481;DHT22;27217;51.220;5.308;2024-03-25T05:05:37;2.30;99.90
41481;DHT22;27217;51.220;5.308;2024-03-25T05:08:03;3.30;99.90
41481;DHT22;27217;51.220;5.308;2024-03-25T05:10:28;2.30;99.90
41481;DHT22;27217;51.220;5.308;2024-03-25T05:12:54;3.30;99.90
41481;DHT22;27217;51.220;5.308;2024-03-25T05:15:21;3.30;99.90
41481;DHT22;27217;51.220;5.308;2024-03-25T05:17:46;2.50;99.90
41481;DHT22;27217;51.220;5.308;2024-03-25T05:20:12;3.40;99.90
41481;DHT22;27217;51.220;5.308;2024-03-25T05:22:37;2.20;99.90
41481;DHT22;27217;51.220;5.308;2024-03-25T05:25:03;3.70;99.90
41481;DHT22;27217;51.220;5.308;2024-03-25T05:27:29;2.20;99.90
41481;DHT22;27217;51.220;5.308;2024-03-25T05:29:54;3.40;99.90
41481;DHT22;27217;51.220;5.308;2024-03-25T05:32:20;2.20;99.90
41481;DHT22;27217;51.220;5.308;2024-03-25T05:34:47;3.00;99.90
41481;DHT22;27217;51.220;5.308;2024-03-25T05:37:13;3.20;99.90
41481;DHT22;27217;51.220;5.308;2024-03-25T05:39:39;3.40;99.90
41481;DHT22;27217;51.220;5.308;2024-03-25T05:42:04;3.20;99.90
41481;DHT22;27217;51.220;5.308;2024-03-25T05:44:30;2.40;99.90
41481;DHT22;27217;51.220;5.308;2024-03-25T05:46:56;2.40;99.90
41481;DHT22;27217;51.220;5.308;2024-03-25T05:49:22;2.50;99.90
41481;DHT22;27217;51.220;5.308;2024-03-25T05:51:48;2.30;99.90
41481;DHT22;27217;51.220;5.308;2024-03-25T05:54:13;3.20;99.90
41481;DHT22;27217;51.220;5.308;2024-03-25T05:56:39;2.40;99.90
41481;DHT22;27217;51.220;5.308;2024-03-25T05:59:04;3.40;99.90
41481;DHT22;27217;51.220;5.308;2024-03-25T06:01:30;4.00;99.90
41481;DHT22;27217;51.220;5.308;2024-03-25T06:03:56;3.60;99.90
41481;DHT22;27217;51.220;5.308;2024-03-25T06:06:21;4.20;99.90
41481;DHT22;27217;51.220;5.308;2024-03-25T06:08:47;4.00;99.90
41481;DHT22;27217;51.220;5.308;2024-03-25T06:11:13;3.60;99.90
41481;DHT22;27217;51.220;5.308;2024-03-25T06:13:42;3.60;99.90
41481;DHT22;27217;51.220;5.308;2024-03-25T06:16:10;4.70;99.90
41481;DHT22;27217;51.220;5.308;2024-03-25T06:18:36;5.10;99.90
41481;DHT22;27217;51.220;5.308;2024-03-25T06:21:01;4.30;99.90
41481;DHT22;27217;51.220;5.308;2024-03-25T06:23:28;3.80;99.90
41481;DHT22;27217;51.220;5.308;2024-03-25T06:25:54;4.20;99.90
41481;DHT22;27217;51.220;5.308;2024-03-25T06:28:20;4.20;99.90
41481;DHT22;27217;51.220;5.308;2024-03-25T06:30:46;4.10;99.90
41481;DHT22;27217;51.220;5.308;2024-03-25T06:33:30;4.40;99.90
41481;DHT22;27217;51.220;5.308;2024-03-25T06:36:15;3.80;99.90
41481;DHT22;27217;51.220;5.308;2024-03-25T06:38:40;3.70;99.90
41481;DHT22;27217;51.220;5.308;2024-03-25T06:41:06;4.00;99.90
41481;DHT22;27217;51.220;5.308;2024-03-25T06:43:31;4.50;99.90
41481;DHT22;27217;51.220;5.308;2024-03-25T06:45:57;4.40;99.90
41481;DHT22;27217;51.220;5.308;2024-03-25T06:48:23;3.90;99.90
41481;DHT22;27217;51.220;5.308;2024-03-25T06:50:55;4.90;99.90
41481;DHT22;27217;51.220;5.308;2024-03-25T06:53:21;4.10;99.90
41481;DHT22;27217;51.220;5.308;2024-03-25T06:55:54;5.10;99.90
41481;DHT22;27217;51.220;5.308;2024-03-25T06:58:20;4.30;99.90
41481;DHT22;27217;51.220;5.308;2024-03-25T07:00:45;5.10;99.90
41481;DHT22;27217;51.220;5.308;2024-03-25T07:03:11;4.60;99.90
41481;DHT22;27217;51.220;5.308;2024-03-25T07:05:37;4.60;99.90
41481;DHT22;27217;51.220;5.308;2024-03-25T07:08:02;4.80;99.90
41481;DHT22;27217;51.220;5.308;2024-03-25T07:10:28;4.90;99.90
41481;DHT22;27217;51.220;5.308;2024-03-25T07:12:53;5.00;99.90
41481;DHT22;27217;51.220;5.308;2024-03-25T07:15:19;5.10;99.90
41481;DHT22;27217;51.220;5.308;2024-03-25T07:17:45;5.20;99.90
41481;DHT22;27217;51.220;5.308;2024-03-25T07:20:10;5.40;99.90
41481;DHT22;27217;51.220;5.308;2024-03-25T07:25:39;5.60;99.90
41481;DHT22;27217;51.220;5.308;2024-03-25T07:37:02;6.00;99.90
41481;DHT22;27217;51.220;5.308;2024-03-25T07:42:31;6.20;99.90
41481;DHT22;27217;51.220;5.308;2024-03-25T07:48:00;6.20;99.90
41481;DHT22;27217;51.220;5.308;2024-03-25T07:53:47;6.40;99.90
41481;DHT22;27217;51.220;5.308;2024-03-25T07:56:12;6.30;99.90
41481;DHT22;27217;51.220;5.308;2024-03-25T08:01:42;6.50;99.90
41481;DHT22;27217;51.220;5.308;2024-03-25T08:10:14;6.60;99.90
41481;DHT22;27217;51.220;5.308;2024-03-25T08:12:49;6.70;99.90
41481;DHT22;27217;51.220;5.308;2024-03-25T08:18:18;6.80;99.90
41481;DHT22;27217;51.220;5.308;2024-03-25T08:20:44;7.20;99.90
41481;DHT22;27217;51.220;5.308;2024-03-25T08:26:12;7.40;99.90
41481;DHT22;27217;51.220;5.308;2024-03-25T08:28:38;7.50;99.90
41481;DHT22;27217;51.220;5.308;2024-03-25T08:31:04;7.60;99.90
41481;DHT22;27217;51.220;5.308;2024-03-25T08:33:29;7.60;99.90
41481;DHT22;27217;51.220;5.308;2024-03-25T08:35:55;7.50;99.90
41481;DHT22;27217;51.220;5.308;2024-03-25T08:50:39;8.10;99.90
41481;DHT22;27217;51.220;5.308;2024-03-25T08:56:07;8.30;99.90
41481;DHT22;27217;51.220;5.308;2024-03-25T09:01:36;8.30;99.90
41481;DHT22;27217;51.220;5.308;2024-03-25T09:10:08;8.50;99.90
41481;DHT22;27217;51.220;5.308;2024-03-25T09:13:02;8.60;99.90
41481;DHT22;27217;51.220;5.308;2024-03-25T09:15:28;8.80;99.90
41481;DHT22;27217;51.220;5.308;2024-03-25T09:17:54;8.70;99.90
41481;DHT22;27217;51.220;5.308;2024-03-25T09:20:20;8.70;99.90
41481;DHT22;27217;51.220;5.308;2024-03-25T09:22:46;8.90;99.90
41481;DHT22;27217;51.220;5.308;2024-03-25T09:31:20;9.20;99.90
41481;DHT22;27217;51.220;5.308;2024-03-25T09:33:45;9.40;99.90
41481;DHT22;27217;51.220;5.308;2024-03-25T09:36:11;9.50;99.90
41481;DHT22;27217;51.220;5.308;2024-03-25T09:41:39;9.80;99.90
41481;DHT22;27217;51.220;5.308;2024-03-25T09:44:08;10.00;99.90
41481;DHT22;27217;51.220;5.308;2024-03-25T09:49:47;10.40;99.90
41481;DHT22;27217;51.220;5.308;2024-03-25T09:55:16;10.40;99.90
41481;DHT22;27217;51.220;5.308;2024-03-25T10:00:45;10.90;99.90
41481;DHT22;27217;51.220;5.308;2024-03-25T10:06:14;10.70;99.90
41481;DHT22;27217;51.220;5.308;2024-03-25T10:11:42;11.10;95.70
41481;DHT22;27217;51.220;5.308;2024-03-25T10:14:17;11.40;98.30
41481;DHT22;27217;51.220;5.308;2024-03-25T10:16:44;11.40;99.50
41481;DHT22;27217;51.220;5.308;2024-03-25T10:19:09;11.60;99.30
41481;DHT22;27217;51.220;5.308;2024-03-25T10:21:35;11.60;93.00
41481;DHT22;27217;51.220;5.308;2024-03-25T10:24:01;11.70;84.90
41481;DHT22;27217;51.220;5.308;2024-03-25T10:26:27;11.90;92.30
41481;DHT22;27217;51.220;5.308;2024-03-25T10:29:03;12.00;95.20
41481;DHT22;27217;51.220;5.308;2024-03-25T10:31:30;12.10;88.90
41481;DHT22;27217;51.220;5.308;2024-03-25T10:33:55;12.10;90.70
41481;DHT22;27217;51.220;5.308;2024-03-25T10:36:21;12.10;87.40
41481;DHT22;27217;51.220;5.308;2024-03-25T10:38:48;12.10;76.00
41481;DHT22;27217;51.220;5.308;2024-03-25T10:41:16;12.30;68.00
41481;DHT22;27217;51.220;5.308;2024-03-25T10:43:42;12.30;70.60
41481;DHT22;27217;51.220;5.308;2024-03-25T10:46:09;12.30;66.10
41481;DHT22;27217;51.220;5.308;2024-03-25T10:48:35;12.50;58.00
41481;DHT22;27217;51.220;5.308;2024-03-25T10:51:03;12.50;64.70
41481;DHT22;27217;51.220;5.308;2024-03-25T10:53:28;12.50;65.40
41481;DHT22;27217;51.220;5.308;2024-03-25T10:55:55;12.50;63.90
41481;DHT22;27217;51.220;5.308;2024-03-25T10:58:21;12.60;67.50
41481;DHT22;27217;51.220;5.308;2024-03-25T11:00:47;13.40;71.30
41481;DHT22;27217;51.220;5.308;2024-03-25T11:03:13;13.70;68.30
41481;DHT22;27217;51.220;5.308;2024-03-25T11:05:39;15.40;54.10
41481;DHT22;27217;51.220;5.308;2024-03-25T11:08:11;16.20;50.40
41481;DHT22;27217;51.220;5.308;2024-03-25T11:10:40;17.80;47.10
41481;DHT22;27217;51.220;5.308;2024-03-25T11:13:17;18.30;44.60
41481;DHT22;27217;51.220;5.308;2024-03-25T11:15:43;19.50;42.30
41481;DHT22;27217;51.220;5.308;2024-03-25T11:18:13;19.30;40.30
41481;DHT22;27217;51.220;5.308;2024-03-25T11:20:39;19.60;40.70
41481;DHT22;27217;51.220;5.308;2024-03-25T11:23:08;19.10;38.30
41481;DHT22;27217;51.220;5.308;2024-03-25T11:25:34;18.00;39.80
41481;DHT22;27217;51.220;5.308;2024-03-25T11:28:00;16.90;42.00
41481;DHT22;27217;51.220;5.308;2024-03-25T11:30:26;15.70;44.20
41481;DHT22;27217;51.220;5.308;2024-03-25T11:32:52;14.50;47.80
41481;DHT22;27217;51.220;5.308;2024-03-25T11:35:18;13.80;51.50
41481;DHT22;27217;51.220;5.308;2024-03-25T11:37:44;14.10;49.80
41481;DHT22;27217;51.220;5.308;2024-03-25T11:40:10;14.20;50.80
41481;DHT22;27217;51.220;5.308;2024-03-25T11:42:42;14.30;51.80
41481;DHT22;27217;51.220;5.308;2024-03-25T11:47:43;14.40;53.90
41481;DHT22;27217;51.220;5.308;2024-03-25T11:50:11;15.70;48.00
41481;DHT22;27217;51.220;5.308;2024-03-25T11:52:36;18.30;39.50
41481;DHT22;27217;51.220;5.308;2024-03-25T11:55:02;21.00;34.40
41481;DHT22;27217;51.220;5.308;2024-03-25T11:57:28;22.90;31.50
41481;DHT22;27217;51.220;5.308;2024-03-25T11:59:54;23.90;28.70
41481;DHT22;27217;51.220;5.308;2024-03-25T12:02:20;21.10;30.80
41481;DHT22;27217;51.220;5.308;2024-03-25T12:04:45;18.80;34.60
41481;DHT22;27217;51.220;5.308;2024-03-25T12:07:11;18.90;36.80
41481;DHT22;27217;51.220;5.308;2024-03-25T12:09:37;20.60;34.30
41481;DHT22;27217;51.220;5.308;2024-03-25T12:12:21;21.80;31.40
41481;DHT22;27217;51.220;5.308;2024-03-25T12:14:47;21.20;31.60
41481;DHT22;27217;51.220;5.308;2024-03-25T12:17:13;21.60;30.20
41481;DHT22;27217;51.220;5.308;2024-03-25T12:19:38;20.70;30.20
41481;DHT22;27217;51.220;5.308;2024-03-25T12:22:06;19.30;32.30
41481;DHT22;27217;51.220;5.308;2024-03-25T12:24:33;18.70;33.90
41481;DHT22;27217;51.220;5.308;2024-03-25T12:26:58;18.10;36.40
41481;DHT22;27217;51.220;5.308;2024-03-25T12:29:24;18.00;36.20
41481;DHT22;27217;51.220;5.308;2024-03-25T12:31:53;17.40;37.00
41481;DHT22;27217;51.220;5.308;2024-03-25T12:34:19;16.60;38.70
41481;DHT22;27217;51.220;5.308;2024-03-25T12:36:45;16.60;39.30
41481;DHT22;27217;51.220;5.308;2024-03-25T12:39:15;16.80;39.60
41481;DHT22;27217;51.220;5.308;2024-03-25T12:41:40;16.80;38.90
41481;DHT22;27217;51.220;5.308;2024-03-25T12:44:08;19.10;35.90
41481;DHT22;27217;51.220;5.308;2024-03-25T12:46:34;21.50;31.90
41481;DHT22;27217;51.220;5.308;2024-03-25T12:48:59;24.40;28.50
41481;DHT22;27217;51.220;5.308;2024-03-25T12:51:25;26.20;26.50
41481;DHT22;27217;51.220;5.308;2024-03-25T12:53:51;26.50;25.70
41481;DHT22;27217;51.220;5.308;2024-03-25T12:56:16;25.40;25.10
41481;DHT22;27217;51.220;5.308;2024-03-25T12:58:42;22.90;26.30
41481;DHT22;27217;51.220;5.308;2024-03-25T13:01:07;20.40;28.70
41481;DHT22;27217;51.220;5.308;2024-03-25T13:03:33;19.70;29.30
41481;DHT22;27217;51.220;5.308;2024-03-25T13:05:59;19.50;29.40
41481;DHT22;27217;51.220;5.308;2024-03-25T13:08:25;19.40;30.60
41481;DHT22;27217;51.220;5.308;2024-03-25T13:10:50;17.50;32.20
41481;DHT22;27217;51.220;5.308;2024-03-25T13:13:16;17.30;33.00
41481;DHT22;27217;51.220;5.308;2024-03-25T13:15:41;17.10;33.50
41481;DHT22;27217;51.220;5.308;2024-03-25T13:18:08;17.20;32.80
41481;DHT22;27217;51.220;5.308;2024-03-25T13:20:34;17.20;32.80
41481;DHT22;27217;51.220;5.308;2024-03-25T13:22:59;17.00;33.60
41481;DHT22;27217;51.220;5.308;2024-03-25T13:25:25;17.50;33.60
41481;DHT22;27217;51.220;5.308;2024-03-25T13:27:52;21.10;29.10
41481;DHT22;27217;51.220;5.308;2024-03-25T13:30:18;22.70;27.00
41481;DHT22;27217;51.220;5.308;2024-03-25T13:32:43;24.40;24.80
41481;DHT22;27217;51.220;5.308;2024-03-25T13:35:15;23.60;26.00
41481;DHT22;27217;51.220;5.308;2024-03-25T13:37:41;24.60;25.10
41481;DHT22;27217;51.220;5.308;2024-03-25T13:40:07;24.90;23.60
41481;DHT22;27217;51.220;5.308;2024-03-25T13:42:34;25.30;23.40
41481;DHT22;27217;51.220;5.308;2024-03-25T13:45:00;25.90;22.80
41481;DHT22;27217;51.220;5.308;2024-03-25T13:47:25;27.00;21.80
41481;DHT22;27217;51.220;5.308;2024-03-25T13:50:03;28.90;21.70
41481;DHT22;27217;51.220;5.308;2024-03-25T13:52:29;30.00;21.10
41481;DHT22;27217;51.220;5.308;2024-03-25T13:54:56;28.80;21.30
41481;DHT22;27217;51.220;5.308;2024-03-25T13:57:21;28.80;21.10
41481;DHT22;27217;51.220;5.308;2024-03-25T13:59:48;27.30;20.90
41481;DHT22;27217;51.220;5.308;2024-03-25T14:02:13;27.90;21.30
41481;DHT22;27217;51.220;5.308;2024-03-25T14:04:39;27.90;21.70
41481;DHT22;27217;51.220;5.308;2024-03-25T14:07:04;29.00;20.90
41481;DHT22;27217;51.220;5.308;2024-03-25T14:09:30;29.20;20.40
41481;DHT22;27217;51.220;5.308;2024-03-25T14:11:56;26.40;21.80
41481;DHT22;27217;51.220;5.308;2024-03-25T14:14:21;24.00;24.00
41481;DHT22;27217;51.220;5.308;2024-03-25T14:16:47;23.70;23.50
41481;DHT22;27217;51.220;5.308;2024-03-25T14:19:12;24.70;23.50
41481;DHT22;27217;51.220;5.308;2024-03-25T14:21:38;23.20;24.00
41481;DHT22;27217;51.220;5.308;2024-03-25T14:24:07;21.30;25.80
41481;DHT22;27217;51.220;5.308;2024-03-25T14:26:33;20.60;27.20
41481;DHT22;27217;51.220;5.308;2024-03-25T14:28:58;19.80;27.50
41481;DHT22;27217;51.220;5.308;2024-03-25T14:31:25;19.60;28.20
41481;DHT22;27217;51.220;5.308;2024-03-25T14:33:51;21.30;27.60
41481;DHT22;27217;51.220;5.308;2024-03-25T14:36:16;24.10;24.70
41481;DHT22;27217;51.220;5.308;2024-03-25T14:38:42;25.50;23.20
41481;DHT22;27217;51.220;5.308;2024-03-25T14:41:08;26.10;22.60
41481;DHT22;27217;51.220;5.308;2024-03-25T14:43:33;26.00;22.30
41481;DHT22;27217;51.220;5.308;2024-03-25T14:45:59;26.30;22.40
41481;DHT22;27217;51.220;5.308;2024-03-25T14:48:24;27.40;22.30
41481;DHT22;27217;51.220;5.308;2024-03-25T14:50:50;26.70;22.10
41481;DHT22;27217;51.220;5.308;2024-03-25T14:53:16;24.80;24.20
41481;DHT22;27217;51.220;5.308;2024-03-25T14:55:41;23.50;24.90
41481;DHT22;27217;51.220;5.308;2024-03-25T14:58:07;23.70;25.20
41481;DHT22;27217;51.220;5.308;2024-03-25T15:00:33;24.30;24.50
41481;DHT22;27217;51.220;5.308;2024-03-25T15:02:58;25.00;24.40
41481;DHT22;27217;51.220;5.308;2024-03-25T15:05:24;26.40;23.40
41481;DHT22;27217;51.220;5.308;2024-03-25T15:07:49;26.80;22.80
41481;DHT22;27217;51.220;5.308;2024-03-25T15:10:15;26.70;23.10
41481;DHT22;27217;51.220;5.308;2024-03-25T15:12:41;27.20;22.80
41481;DHT22;27217;51.220;5.308;2024-03-25T15:15:07;26.20;23.00
41481;DHT22;27217;51.220;5.308;2024-03-25T15:17:33;25.10;23.90
41481;DHT22;27217;51.220;5.308;2024-03-25T15:19:59;24.60;24.40
41481;DHT22;27217;51.220;5.308;2024-03-25T15:22:25;24.60;24.30
41481;DHT22;27217;51.220;5.308;2024-03-25T15:24:50;26.10;23.60
41481;DHT22;27217;51.220;5.308;2024-03-25T15:27:16;25.50;23.30
41481;DHT22;27217;51.220;5.308;2024-03-25T15:29:41;23.80;24.40
41481;DHT22;27217;51.220;5.308;2024-03-25T15:32:07;23.40;25.70
41481;DHT22;27217;51.220;5.308;2024-03-25T15:34:32;23.00;25.70
41481;DHT22;27217;51.220;5.308;2024-03-25T15:36:58;22.80;26.20
41481;DHT22;27217;51.220;5.308;2024-03-25T15:39:24;23.50;25.70
41481;DHT22;27217;51.220;5.308;2024-03-25T15:41:50;23.60;25.60
41481;DHT22;27217;51.220;5.308;2024-03-25T15:44:15;23.00;26.50
41481;DHT22;27217;51.220;5.308;2024-03-25T15:46:41;22.90;26.00
41481;DHT22;27217;51.220;5.308;2024-03-25T15:49:07;22.80;26.00
41481;DHT22;27217;51.220;5.308;2024-03-25T15:51:33;22.00;26.50
41481;DHT22;27217;51.220;5.308;2024-03-25T15:53:58;22.00;26.80
41481;DHT22;27217;51.220;5.308;2024-03-25T15:56:24;21.90;26.80
41481;DHT22;27217;51.220;5.308;2024-03-25T15:58:50;22.00;26.90
41481;DHT22;27217;51.220;5.308;2024-03-25T16:01:15;21.50;27.50
41481;DHT22;27217;51.220;5.308;2024-03-25T16:03:41;21.60;27.60
41481;DHT22;27217;51.220;5.308;2024-03-25T16:06:06;21.80;27.80
41481;DHT22;27217;51.220;5.308;2024-03-25T16:08:32;20.70;28.20
41481;DHT22;27217;51.220;5.308;2024-03-25T16:10:58;19.70;29.50
41481;DHT22;27217;51.220;5.308;2024-03-25T16:13:23;19.50;29.90
41481;DHT22;27217;51.220;5.308;2024-03-25T16:16:08;19.90;30.00
41481;DHT22;27217;51.220;5.308;2024-03-25T16:18:36;20.30;29.70
41481;DHT22;27217;51.220;5.308;2024-03-25T16:21:02;19.70;29.50
41481;DHT22;27217;51.220;5.308;2024-03-25T16:23:28;19.50;30.20
41481;DHT22;27217;51.220;5.308;2024-03-25T16:25:53;19.20;30.50
41481;DHT22;27217;51.220;5.308;2024-03-25T16:28:20;18.50;30.50
41481;DHT22;27217;51.220;5.308;2024-03-25T16:30:46;18.00;32.40
41481;DHT22;27217;51.220;5.308;2024-03-25T16:33:11;17.30;32.90
41481;DHT22;27217;51.220;5.308;2024-03-25T16:35:37;16.90;34.60
41481;DHT22;27217;51.220;5.308;2024-03-25T16:38:03;16.70;35.20
41481;DHT22;27217;51.220;5.308;2024-03-25T16:40:29;16.40;36.30
41481;DHT22;27217;51.220;5.308;2024-03-25T16:42:55;15.80;37.70
41481;DHT22;27217;51.220;5.308;2024-03-25T16:45:21;15.40;38.60
41481;DHT22;27217;51.220;5.308;2024-03-25T16:47:46;15.10;39.40
41481;DHT22;27217;51.220;5.308;2024-03-25T16:50:12;15.00;39.40
41481;DHT22;27217;51.220;5.308;2024-03-25T16:52:38;14.80;40.10
41481;DHT22;27217;51.220;5.308;2024-03-25T16:55:04;15.00;40.50
41481;DHT22;27217;51.220;5.308;2024-03-25T16:57:31;14.50;41.10
41481;DHT22;27217;51.220;5.308;2024-03-25T16:59:57;14.50;41.50
41481;DHT22;27217;51.220;5.308;2024-03-25T17:02:23;14.60;41.50